Time;durP1;ratioP1;P1;durP2;ratioP2;P2;SDS_P1;SDS_P2;PMS_P1;PMS_P2;Temp;Humidity;BMP_temperature;BMP_pressure;BME280_temperature;BME280_humidity;BME280_pressure;Samples;Min_cycle;Max_cycle;Signal;HPM_P1;HPM_P2
2022/08/09 00:00:47;;;;;;;3.78;1.40;;;21.80;81.60;;;;;;5036434;28;20037;-80
2022/08/09 00:03:12;;;;;;;4.10;1.40;;;21.80;81.80;;;;;;5018837;28;20022;-81
2022/08/09 00:05:38;;;;;;;2.45;1.30;;;21.80;82.00;;;;;;5018912;28;20473;-80
2022/08/09 00:08:06;;;;;;;2.78;1.45;;;21.70;82.10;;;;;;5002147;28;20128;-79
2022/08/09 00:10:31;;;;;;;3.30;1.38;;;21.70;82.20;;;;;;5018742;28;20042;-80
2022/08/09 00:12:57;;;;;;;3.58;1.45;;;21.70;82.40;;;;;;5035229;28;20094;-85
2022/08/09 00:15:23;;;;;;;2.90;1.35;;;21.70;82.50;;;;;;5002089;28;20037;-85
2022/08/09 00:17:49;;;;;;;2.90;1.30;;;21.60;82.50;;;;;;5036214;28;20455;-85
2022/08/09 00:20:14;;;;;;;4.95;1.63;;;21.60;82.80;;;;;;5018461;28;20521;-85
2022/08/09 00:22:40;;;;;;;4.82;1.42;;;21.60;82.90;;;;;;5035128;28;20025;-85
2022/08/09 00:25:06;;;;;;;4.38;1.33;;;21.60;83.00;;;;;;5002158;28;20029;-85
2022/08/09 00:27:32;;;;;;;3.72;1.20;;;21.50;83.00;;;;;;5034831;28;20033;-85
2022/08/09 00:29:57;;;;;;;4.97;1.42;;;21.50;83.20;;;;;;5033170;28;20041;-84
2022/08/09 00:32:23;;;;;;;4.13;1.25;;;21.50;83.40;;;;;;5034722;28;20128;-85
2022/08/09 00:34:49;;;;;;;3.22;1.25;;;21.50;83.50;;;;;;5018108;28;20029;-85
2022/08/09 00:37:14;;;;;;;3.05;1.20;;;21.40;83.70;;;;;;5018198;28;20095;-79
2022/08/09 00:39:40;;;;;;;3.90;1.50;;;21.40;83.90;;;;;;5018074;28;20029;-79
2022/08/09 00:42:06;;;;;;;4.65;1.40;;;21.40;84.00;;;;;;5034713;28;20021;-79
2022/08/09 00:44:31;;;;;;;2.40;1.42;;;21.40;84.00;;;;;;5018182;28;20490;-79
2022/08/09 00:46:57;;;;;;;4.15;1.38;;;21.30;84.10;;;;;;5034424;28;20060;-85
2022/08/09 00:49:23;;;;;;;3.47;1.55;;;21.30;84.20;;;;;;5018098;28;20386;-84
2022/08/09 00:51:49;;;;;;;3.05;1.60;;;21.30;84.40;;;;;;5017963;28;20083;-84
2022/08/09 00:54:15;;;;;;;5.88;1.60;;;21.20;84.40;;;;;;5034737;28;20033;-81
2022/08/09 00:56:41;;;;;;;6.30;1.73;;;21.20;84.50;;;;;;5034819;28;20095;-80
2022/08/09 00:59:42;;;;;;;2.47;1.30;;;21.20;84.60;;;;;;5013470;28;20096;-81
2022/08/09 01:02:08;;;;;;;3.33;1.55;;;21.20;84.80;;;;;;5033673;28;20021;-81
2022/08/09 01:04:46;;;;;;;3.67;1.60;;;21.10;84.80;;;;;;5035868;28;20033;-80
2022/08/09 01:07:25;;;;;;;3.42;1.70;;;21.10;85.20;;;;;;5034754;28;20045;-81
2022/08/09 01:10:03;;;;;;;3.10;1.60;;;21.10;85.30;;;;;;5034491;28;20470;-81
2022/08/09 01:12:41;;;;;;;3.80;1.55;;;21.00;85.50;;;;;;5034350;28;20482;-81
2022/08/09 01:15:11;;;;;;;3.88;1.60;;;21.00;85.70;;;;;;5034445;28;20044;-81
2022/08/09 01:17:42;;;;;;;3.40;1.60;;;21.00;85.90;;;;;;5034487;28;20075;-81
2022/08/09 01:20:30;;;;;;;3.85;1.83;;;21.00;86.10;;;;;;5034064;28;20025;-84
2022/08/09 01:23:07;;;;;;;3.00;1.80;;;20.90;86.20;;;;;;5033418;28;20486;-84
2022/08/09 01:25:51;;;;;;;4.10;1.92;;;20.90;86.50;;;;;;5033866;28;20486;-83
2022/08/09 01:28:20;;;;;;;2.85;1.50;;;20.90;86.80;;;;;;5033841;28;20025;-84
2022/08/09 01:30:48;;;;;;;5.50;2.00;;;20.90;86.70;;;;;;5033726;28;20021;-84
2022/08/09 01:33:15;;;;;;;4.95;2.08;;;20.80;86.80;;;;;;5034117;28;20029;-84
2022/08/09 01:35:51;;;;;;;4.95;1.90;;;20.80;87.00;;;;;;5033662;28;20075;-84
2022/08/09 01:38:21;;;;;;;3.78;1.70;;;20.80;87.20;;;;;;5049797;28;20029;-84
2022/08/09 01:40:51;;;;;;;4.22;2.03;;;20.70;87.40;;;;;;5034832;28;20022;-84
2022/08/09 01:43:18;;;;;;;3.03;1.90;;;20.70;87.50;;;;;;5033471;28;20103;-84
2022/08/09 01:45:45;;;;;;;5.10;1.90;;;20.70;88.10;;;;;;4997180;28;20553;-84
2022/08/09 01:48:11;;;;;;;4.15;2.05;;;20.70;87.70;;;;;;5016940;28;20017;-84
2022/08/09 01:50:38;;;;;;;4.15;2.10;;;20.70;88.00;;;;;;5017025;28;20026;-84
2022/08/09 01:53:07;;;;;;;4.90;2.22;;;20.60;88.00;;;;;;5033252;28;20033;-84
2022/08/09 01:55:34;;;;;;;4.30;2.28;;;20.60;88.10;;;;;;5034173;28;20421;-84
2022/08/09 01:58:02;;;;;;;4.18;2.25;;;20.60;88.80;;;;;;5016728;28;20467;-84
2022/08/09 02:00:28;;;;;;;3.28;1.92;;;20.60;88.40;;;;;;5034434;28;20105;-84
2022/08/09 02:02:54;;;;;;;5.43;2.30;;;20.60;88.50;;;;;;5033423;28;20021;-85
2022/08/09 02:05:22;;;;;;;3.97;2.15;;;20.50;88.50;;;;;;5032942;28;20025;-85
2022/08/09 02:07:53;;;;;;;4.93;2.42;;;20.50;88.60;;;;;;5032929;28;20057;-85
2022/08/09 02:10:40;;;;;;;4.35;2.03;;;20.50;88.70;;;;;;5033136;28;20017;-85
2022/08/09 02:13:08;;;;;;;4.35;2.20;;;20.50;88.80;;;;;;5032965;28;20021;-84
2022/08/09 02:15:37;;;;;;;4.90;2.17;;;20.40;88.90;;;;;;5033982;28;20481;-80
2022/08/09 02:18:04;;;;;;;3.67;2.03;;;20.40;89.20;;;;;;5032784;28;20051;-80
2022/08/09 02:20:32;;;;;;;4.00;1.98;;;20.40;89.20;;;;;;5032055;28;20429;-80
2022/08/09 02:23:00;;;;;;;3.58;2.20;;;20.30;89.40;;;;;;5034090;28;20021;-79
2022/08/09 02:25:31;;;;;;;5.13;2.20;;;20.30;89.60;;;;;;5032463;28;20056;-79
2022/08/09 02:28:12;;;;;;;4.82;2.30;;;20.30;89.70;;;;;;5034003;28;20200;-79
2022/08/09 02:30:46;;;;;;;4.10;2.45;;;20.30;90.00;;;;;;5032457;28;20068;-84
2022/08/09 02:33:16;;;;;;;5.25;2.30;;;20.20;90.00;;;;;;5031923;28;20029;-84
2022/08/09 02:35:44;;;;;;;5.97;2.63;;;20.20;90.10;;;;;;5032436;28;20378;-84
2022/08/09 02:38:11;;;;;;;4.40;2.78;;;20.20;90.20;;;;;;5032483;28;20022;-84
2022/08/09 02:40:39;;;;;;;6.68;2.63;;;20.20;90.30;;;;;;5033820;28;20029;-84
2022/08/09 02:43:08;;;;;;;4.65;2.38;;;20.20;90.30;;;;;;5031073;28;20183;-83
2022/08/09 02:45:39;;;;;;;5.43;3.40;;;20.10;90.40;;;;;;5046654;28;20044;-84
2022/08/09 02:48:09;;;;;;;6.10;2.88;;;20.10;90.50;;;;;;5033545;28;20067;-84
2022/08/09 02:50:51;;;;;;;5.78;2.65;;;20.10;90.50;;;;;;5032406;28;20033;-84
2022/08/09 02:53:26;;;;;;;3.70;2.38;;;20.10;90.60;;;;;;5033582;28;20029;-84
2022/08/09 02:55:56;;;;;;;4.32;2.72;;;20.00;90.70;;;;;;5033517;28;20025;-84
2022/08/09 02:58:25;;;;;;;3.97;2.50;;;20.00;90.80;;;;;;5032345;28;20017;-84
2022/08/09 03:00:52;;;;;;;5.50;2.65;;;20.00;90.80;;;;;;5033498;28;20053;-84
2022/08/09 03:03:20;;;;;;;6.47;2.85;;;20.00;90.90;;;;;;5033390;28;20037;-84
2022/08/09 03:05:49;;;;;;;6.45;2.55;;;20.00;90.90;;;;;;5015701;28;20061;-84
2022/08/09 03:08:16;;;;;;;3.35;2.30;;;19.90;91.00;;;;;;5031509;28;20057;-84
2022/08/09 03:10:43;;;;;;;3.72;2.40;;;19.90;91.10;;;;;;5015466;28;20025;-84
2022/08/09 03:13:12;;;;;;;4.55;2.40;;;19.90;91.20;;;;;;5033213;28;20068;-84
2022/08/09 03:15:39;;;;;;;7.07;2.63;;;19.90;91.30;;;;;;5031810;28;20095;-83
2022/08/09 03:18:05;;;;;;;4.97;2.40;;;19.90;91.30;;;;;;5015587;28;20025;-84
2022/08/09 03:20:31;;;;;;;4.38;2.40;;;19.90;91.40;;;;;;5031949;28;20030;-83
2022/08/09 03:22:58;;;;;;;5.45;2.70;;;19.80;91.40;;;;;;5031886;28;20368;-83
2022/08/09 03:25:29;;;;;;;6.00;2.83;;;19.80;91.70;;;;;;5032809;28;20025;-83
2022/08/09 03:27:56;;;;;;;4.68;2.80;;;19.80;91.80;;;;;;5019779;28;20100;-83
2022/08/09 03:30:22;;;;;;;5.07;3.00;;;19.80;91.70;;;;;;5033047;28;20053;-84
2022/08/09 03:32:50;;;;;;;6.07;3.38;;;19.80;91.80;;;;;;5035678;28;20032;-84
2022/08/09 03:35:16;;;;;;;4.25;2.75;;;19.70;91.90;;;;;;5035588;28;20101;-83
2022/08/09 03:37:42;;;;;;;4.68;2.78;;;19.70;91.90;;;;;;5002750;28;20475;-84
2022/08/09 03:40:09;;;;;;;4.97;2.70;;;19.70;92.00;;;;;;5019992;28;20028;-84
2022/08/09 03:42:35;;;;;;;5.72;2.75;;;19.70;92.10;;;;;;5036816;28;20104;-84
2022/08/09 03:45:53;;;;;;;7.90;3.10;;;19.60;92.10;;;;;;5034722;28;20140;-83
2022/08/09 03:48:22;;;;;;;4.82;3.13;;;19.60;92.30;;;;;;5035011;28;20087;-84
2022/08/09 03:50:54;;;;;;;5.00;2.75;;;19.60;92.30;;;;;;5035548;28;20021;-84
2022/08/09 03:53:21;;;;;;;3.85;2.80;;;19.60;92.40;;;;;;5035635;28;20033;-84
2022/08/09 03:55:48;;;;;;;5.47;3.20;;;19.60;92.50;;;;;;5050286;28;20108;-84
2022/08/09 03:58:15;;;;;;;5.53;3.20;;;19.50;92.60;;;;;;5035518;28;20028;-84
2022/08/09 04:00:41;;;;;;;7.25;3.40;;;19.50;92.70;;;;;;5036578;28;20022;-85
2022/08/09 04:03:08;;;;;;;5.20;3.00;;;19.50;92.80;;;;;;5018832;28;20032;-85
2022/08/09 04:05:34;;;;;;;7.90;3.60;;;19.50;92.90;;;;;;5036542;28;20034;-84
2022/08/09 04:08:00;;;;;;;5.10;3.40;;;19.50;92.90;;;;;;5002221;28;20402;-85
2022/08/09 04:10:26;;;;;;;5.53;3.10;;;19.50;93.00;;;;;;5019100;28;20030;-84
2022/08/09 04:12:53;;;;;;;4.82;3.05;;;19.50;93.10;;;;;;5033838;28;20053;-85
2022/08/09 04:15:23;;;;;;;6.80;3.50;;;19.40;93.10;;;;;;5035336;28;20033;-84
2022/08/09 04:17:49;;;;;;;5.53;3.20;;;19.40;93.20;;;;;;5035516;28;20052;-85
2022/08/09 04:20:16;;;;;;;6.63;3.40;;;19.40;93.30;;;;;;5036071;28;20542;-85
2022/08/09 04:22:43;;;;;;;8.02;3.58;;;19.30;93.30;;;;;;5037065;28;20088;-84
2022/08/09 04:25:09;;;;;;;7.07;3.63;;;19.40;93.40;;;;;;5035792;28;20040;-84
2022/08/09 04:27:40;;;;;;;7.45;3.60;;;19.30;93.50;;;;;;5020022;28;20036;-85
2022/08/09 04:30:11;;;;;;;7.30;3.78;;;19.30;93.60;;;;;;5036113;28;20029;-85
2022/08/09 04:32:37;;;;;;;6.55;4.15;;;19.30;93.70;;;;;;5020275;28;20100;-85
2022/08/09 04:35:05;;;;;;;5.80;3.67;;;19.20;93.80;;;;;;5036068;28;20043;-84
2022/08/09 04:37:31;;;;;;;9.43;4.00;;;19.20;93.90;;;;;;5020219;28;20394;-85
2022/08/09 04:39:56;;;;;;;9.50;3.75;;;19.20;94.00;;;;;;5020305;28;20026;-85
2022/08/09 04:42:22;;;;;;;6.25;3.60;;;19.20;94.10;;;;;;5020103;28;20029;-85
2022/08/09 04:44:48;;;;;;;8.07;3.70;;;19.20;94.20;;;;;;5002801;28;20034;-85
2022/08/09 04:47:13;;;;;;;6.18;4.18;;;19.20;94.20;;;;;;5035649;28;20478;-80
2022/08/09 04:49:39;;;;;;;6.20;4.00;;;19.20;94.30;;;;;;5034734;28;20092;-80
2022/08/09 04:52:05;;;;;;;7.75;4.32;;;19.10;94.30;;;;;;5036166;28;20040;-80
2022/08/09 04:54:31;;;;;;;6.45;3.72;;;19.10;94.40;;;;;;5036771;28;20506;-80
2022/08/09 04:56:58;;;;;;;6.22;4.10;;;19.10;94.50;;;;;;5035425;28;20030;-81
2022/08/09 04:59:23;;;;;;;7.20;4.20;;;19.10;94.60;;;;;;5019263;28;20375;-80
2022/08/09 05:01:49;;;;;;;7.53;4.20;;;19.10;94.70;;;;;;5036524;28;20014;-81
2022/08/09 05:04:43;;;;;;;8.50;3.95;;;19.10;94.80;;;;;;5003338;28;20037;-80
2022/08/09 05:07:09;;;;;;;6.22;3.90;;;19.10;94.90;;;;;;5035839;28;20134;-81
2022/08/09 05:09:34;;;;;;;9.88;4.28;;;19.10;94.90;;;;;;5015856;28;20488;-80
2022/08/09 05:12:00;;;;;;;6.80;4.07;;;19.10;95.00;;;;;;5042484;28;20053;-80
2022/08/09 05:14:26;;;;;;;7.10;4.00;;;19.10;95.10;;;;;;5035156;28;20033;-81
2022/08/09 05:16:52;;;;;;;6.43;4.03;;;19.10;95.10;;;;;;5003458;28;20021;-81
2022/08/09 05:19:20;;;;;;;8.45;3.92;;;19.10;95.20;;;;;;5002844;28;20039;-79
2022/08/09 05:21:49;;;;;;;8.50;4.22;;;19.00;95.30;;;;;;5003502;28;20021;-80
2022/08/09 05:24:15;;;;;;;7.57;3.97;;;19.00;95.40;;;;;;5018539;28;20028;-85
2022/08/09 05:26:40;;;;;;;8.13;4.28;;;19.00;95.50;;;;;;5019681;28;20030;-85
2022/08/09 05:29:06;;;;;;;7.20;3.83;;;19.00;95.50;;;;;;5017364;28;20061;-85
2022/08/09 05:31:32;;;;;;;9.07;4.20;;;19.00;95.60;;;;;;5018411;28;20029;-81
2022/08/09 05:33:58;;;;;;;11.00;3.90;;;19.00;95.60;;;;;;5034975;28;20038;-81
2022/08/09 05:36:24;;;;;;;6.55;3.90;;;19.00;95.70;;;;;;5034840;28;20578;-81
2022/08/09 05:38:49;;;;;;;6.97;3.83;;;19.00;95.80;;;;;;5018394;28;20410;-81
2022/08/09 05:41:15;;;;;;;8.60;3.88;;;19.10;95.90;;;;;;5034846;28;20026;-85
2022/08/09 05:43:41;;;;;;;9.32;4.00;;;19.10;96.00;;;;;;5035018;28;20044;-85
2022/08/09 05:46:06;;;;;;;6.45;3.90;;;19.10;96.10;;;;;;5000506;28;20425;-85
2022/08/09 05:48:32;;;;;;;6.20;3.88;;;19.10;96.10;;;;;;5002311;28;20505;-85
2022/08/09 05:50:58;;;;;;;6.55;3.28;;;19.10;96.20;;;;;;5034330;28;20017;-85
2022/08/09 05:53:24;;;;;;;7.68;4.07;;;19.10;96.20;;;;;;5034214;28;20033;-85
2022/08/09 05:56:06;;;;;;;5.22;3.58;;;19.10;96.30;;;;;;5015632;28;20092;-85
2022/08/09 05:58:31;;;;;;;6.47;4.00;;;19.20;96.40;;;;;;5014018;28;20121;-85
2022/08/09 06:00:57;;;;;;;8.95;3.90;;;19.20;96.40;;;;;;5013204;28;20034;-85
2022/08/09 06:03:23;;;;;;;8.50;4.25;;;19.20;96.40;;;;;;5016667;28;20506;-85
2022/08/09 06:05:49;;;;;;;7.22;3.72;;;19.20;96.40;;;;;;5034200;28;20038;-85
2022/08/09 06:08:16;;;;;;;5.45;3.10;;;19.20;96.50;;;;;;5016950;28;20053;-85
2022/08/09 06:10:42;;;;;;;4.63;3.17;;;19.20;96.50;;;;;;5033240;28;20025;-85
2022/08/09 06:13:26;;;;;;;5.40;3.33;;;19.30;96.50;;;;;;5032405;28;20045;-81
2022/08/09 06:15:52;;;;;;;5.97;3.50;;;19.30;96.50;;;;;;5037453;28;20120;-81
2022/08/09 06:18:21;;;;;;;6.10;3.67;;;19.30;96.50;;;;;;5028352;28;20124;-81
2022/08/09 06:20:47;;;;;;;10.40;3.60;;;19.30;96.50;;;;;;5007554;28;20022;-87
2022/08/09 06:23:13;;;;;;;7.07;3.70;;;19.30;96.50;;;;;;5031776;28;20029;-85
2022/08/09 06:25:38;;;;;;;4.97;3.25;;;19.30;96.60;;;;;;5005787;28;20371;-86
2022/08/09 06:28:06;;;;;;;4.57;3.20;;;19.40;96.70;;;;;;5001974;28;20334;-85
2022/08/09 06:30:32;;;;;;;6.10;2.92;;;19.40;96.80;;;;;;5017413;28;20034;-85
2022/08/09 06:32:58;;;;;;;5.88;3.10;;;19.40;96.90;;;;;;5032010;28;20048;-85
2022/08/09 06:35:24;;;;;;;4.97;3.05;;;19.50;97.00;;;;;;5001711;28;20478;-85
2022/08/09 06:37:49;;;;;;;5.65;3.20;;;19.50;97.10;;;;;;5012959;28;20046;-86
2022/08/09 06:40:15;;;;;;;5.65;2.75;;;19.50;97.10;;;;;;5013755;28;20124;-86
2022/08/09 06:42:41;;;;;;;4.18;2.88;;;19.50;97.10;;;;;;5014266;28;20022;-85
2022/08/09 06:45:07;;;;;;;5.32;2.83;;;19.50;97.20;;;;;;5017932;28;20026;-85
2022/08/09 06:47:33;;;;;;;5.38;3.10;;;19.60;97.30;;;;;;5027389;28;20037;-85
2022/08/09 06:49:59;;;;;;;4.82;2.92;;;19.60;97.30;;;;;;5016243;28;20393;-86
2022/08/09 06:52:27;;;;;;;4.93;2.75;;;19.60;97.40;;;;;;5051243;28;20025;-85
2022/08/09 06:54:53;;;;;;;6.07;2.80;;;19.70;97.50;;;;;;5015819;28;20037;-85
2022/08/09 06:57:19;;;;;;;4.05;2.30;;;19.70;97.50;;;;;;4999077;28;20497;-86
2022/08/09 06:59:45;;;;;;;3.33;2.22;;;19.80;97.60;;;;;;5012457;28;20038;-85
2022/08/09 07:02:11;;;;;;;4.55;2.53;;;19.80;97.70;;;;;;4995629;28;20022;-86
2022/08/09 07:04:36;;;;;;;4.45;2.10;;;19.80;97.70;;;;;;5013591;28;20037;-86
2022/08/09 07:07:03;;;;;;;4.75;2.20;;;19.90;97.80;;;;;;5014897;28;20029;-87
2022/08/09 07:09:29;;;;;;;4.18;2.03;;;19.90;97.90;;;;;;4999009;28;20026;-82
2022/08/09 07:11:54;;;;;;;6.45;2.10;;;20.00;97.90;;;;;;5028205;28;20040;-82
2022/08/09 07:14:20;;;;;;;4.93;1.90;;;20.00;97.90;;;;;;4998635;28;20021;-83
2022/08/09 07:16:46;;;;;;;3.78;1.90;;;20.10;97.90;;;;;;5028234;28;20026;-83
2022/08/09 07:19:13;;;;;;;3.78;1.88;;;20.20;97.70;;;;;;5025378;28;20033;-83
2022/08/09 07:21:39;;;;;;;2.78;1.83;;;20.20;97.70;;;;;;5029902;28;20386;-81
2022/08/09 07:24:06;;;;;;;3.35;1.70;;;20.30;97.60;;;;;;5033348;28;20028;-81
2022/08/09 07:26:33;;;;;;;3.25;1.75;;;20.30;97.50;;;;;;5028588;28;20474;-81
2022/08/09 07:28:58;;;;;;;4.85;1.88;;;20.40;97.60;;;;;;5015294;28;20025;-81
2022/08/09 07:31:24;;;;;;;2.45;1.40;;;20.40;97.60;;;;;;5032978;28;20036;-85
2022/08/09 07:33:50;;;;;;;3.53;1.70;;;20.50;97.50;;;;;;5032224;28;20467;-84
2022/08/09 07:37:02;;;;;;;3.83;1.92;;;20.60;97.50;;;;;;5033214;28;20037;-85
2022/08/09 07:39:28;;;;;;;2.90;1.67;;;20.70;97.40;;;;;;5029850;28;20029;-85
2022/08/09 07:41:54;;;;;;;1.73;1.20;;;20.70;97.40;;;;;;5016319;28;20030;-85
2022/08/09 07:44:20;;;;;;;4.22;1.65;;;20.80;97.30;;;;;;5012354;28;20076;-84
2022/08/09 07:46:46;;;;;;;3.20;1.40;;;20.90;97.30;;;;;;5015294;28;20036;-84
2022/08/09 07:49:12;;;;;;;3.78;1.60;;;20.90;97.20;;;;;;5015464;28;20032;-85
2022/08/09 07:51:38;;;;;;;2.78;1.40;;;21.00;97.10;;;;;;5032841;28;20034;-85
2022/08/09 07:54:04;;;;;;;3.85;1.30;;;21.10;97.00;;;;;;5031858;28;20056;-85
2022/08/09 07:56:30;;;;;;;4.13;1.40;;;21.10;96.90;;;;;;5032665;28;20033;-80
2022/08/09 07:58:56;;;;;;;2.08;1.33;;;21.20;96.80;;;;;;5015615;28;20014;-81
2022/08/09 08:01:22;;;;;;;1.67;1.10;;;21.30;96.70;;;;;;5032629;28;20018;-81
2022/08/09 08:03:47;;;;;;;1.90;1.30;;;21.40;96.60;;;;;;5032401;28;20037;-81
2022/08/09 08:06:13;;;;;;;3.33;1.40;;;21.50;96.50;;;;;;5031888;28;20044;-81
2022/08/09 08:08:39;;;;;;;2.05;1.15;;;21.60;96.30;;;;;;5014911;28;20049;-79
2022/08/09 08:11:04;;;;;;;1.90;1.05;;;21.60;96.20;;;;;;5031701;28;20038;-80
2022/08/09 08:13:30;;;;;;;3.25;1.33;;;21.70;96.20;;;;;;5031788;28;20029;-80
2022/08/09 08:15:56;;;;;;;2.08;1.00;;;21.80;96.10;;;;;;5015422;28;20041;-81
2022/08/09 08:18:21;;;;;;;4.30;1.40;;;21.90;96.00;;;;;;5031913;28;20067;-82
2022/08/09 08:20:47;;;;;;;2.65;1.00;;;22.00;95.90;;;;;;5035142;28;20603;-82
2022/08/09 08:23:13;;;;;;;0.57;0.57;;;22.10;95.70;;;;;;5034193;28;20033;-81
2022/08/09 08:25:38;;;;;;;2.08;0.88;;;22.10;95.30;;;;;;5018638;28;20026;-82
2022/08/09 08:28:04;;;;;;;2.05;0.80;;;22.20;95.10;;;;;;5018752;28;20442;-82
2022/08/09 08:30:30;;;;;;;4.38;0.90;;;22.30;94.80;;;;;;5035430;28;20034;-81
2022/08/09 08:32:56;;;;;;;1.15;0.80;;;22.30;94.60;;;;;;5035237;28;20475;-81
2022/08/09 08:35:22;;;;;;;1.48;0.85;;;22.40;94.10;;;;;;5036061;28;20029;-81
2022/08/09 08:37:49;;;;;;;1.20;0.90;;;22.50;93.40;;;;;;5019315;28;20059;-81
2022/08/09 08:40:15;;;;;;;2.92;1.10;;;22.50;93.20;;;;;;5035411;28;20052;-80
2022/08/09 08:42:44;;;;;;;2.03;0.82;;;22.60;93.10;;;;;;5019030;28;20021;-78
2022/08/09 08:45:11;;;;;;;1.70;0.70;;;22.70;93.00;;;;;;5035064;28;20389;-79
2022/08/09 08:47:39;;;;;;;2.22;1.00;;;22.70;93.00;;;;;;5036698;28;20024;-78
2022/08/09 08:50:06;;;;;;;2.22;0.98;;;22.80;93.00;;;;;;5018742;28;20044;-78
2022/08/09 08:52:33;;;;;;;1.58;0.90;;;22.90;92.70;;;;;;5035690;28;20071;-84
2022/08/09 08:54:59;;;;;;;1.80;0.93;;;23.00;92.70;;;;;;5035964;28;20042;-85
2022/08/09 08:57:26;;;;;;;3.33;1.20;;;23.10;92.60;;;;;;5034613;28;20029;-84
2022/08/09 08:59:53;;;;;;;2.05;1.13;;;23.10;92.40;;;;;;5034315;28;20031;-84
2022/08/09 09:02:28;;;;;;;2.30;1.25;;;23.20;92.10;;;;;;5034379;28;20105;-83
2022/08/09 09:04:59;;;;;;;1.88;0.93;;;23.30;92.10;;;;;;5033861;28;20316;-84
2022/08/09 09:07:26;;;;;;;2.00;0.77;;;23.40;91.80;;;;;;5034524;28;20119;-84
2022/08/09 09:09:53;;;;;;;0.63;0.60;;;23.40;91.50;;;;;;5033761;28;20033;-85
2022/08/09 09:12:22;;;;;;;1.58;0.73;;;23.50;90.80;;;;;;5017352;28;20030;-85
2022/08/09 09:14:49;;;;;;;3.15;1.00;;;23.50;90.20;;;;;;5033792;28;20059;-85
2022/08/09 09:17:15;;;;;;;1.83;0.90;;;23.60;90.00;;;;;;5024196;28;20029;-81
2022/08/09 09:19:42;;;;;;;3.08;0.82;;;23.70;89.30;;;;;;5033317;28;20022;-82
2022/08/09 09:22:08;;;;;;;1.45;0.80;;;23.70;89.30;;;;;;5033438;28;20021;-82
2022/08/09 09:24:37;;;;;;;1.48;1.00;;;23.80;89.60;;;;;;5033393;28;20601;-82
2022/08/09 09:27:05;;;;;;;0.60;0.50;;;23.90;89.30;;;;;;5033054;28;20028;-82
2022/08/09 09:29:36;;;;;;;1.10;0.70;;;23.90;89.10;;;;;;5016280;28;20033;-82
2022/08/09 09:32:03;;;;;;;1.13;0.47;;;24.00;88.60;;;;;;5033420;28;20025;-82
2022/08/09 09:34:29;;;;;;;1.13;0.75;;;24.00;87.90;;;;;;5017353;28;20127;-82
2022/08/09 09:36:56;;;;;;;2.65;1.00;;;24.10;87.40;;;;;;5034025;28;20025;-85
2022/08/09 09:39:24;;;;;;;0.50;0.50;;;24.10;87.30;;;;;;5017285;28;20022;-85
2022/08/09 09:41:50;;;;;;;1.48;0.60;;;24.20;87.40;;;;;;5017016;28;20030;-85
2022/08/09 09:44:29;;;;;;;2.15;0.90;;;24.30;87.20;;;;;;5033495;28;20417;-84
2022/08/09 09:47:15;;;;;;;2.67;0.80;;;24.40;86.40;;;;;;5017219;28;20124;-84
2022/08/09 09:49:49;;;;;;;1.27;0.68;;;24.40;85.50;;;;;;5034479;28;20033;-85
2022/08/09 09:52:15;;;;;;;2.83;0.70;;;24.50;84.70;;;;;;5031731;28;20455;-85
2022/08/09 09:54:42;;;;;;;2.65;1.00;;;24.50;84.00;;;;;;5013357;28;20026;-85
2022/08/09 09:57:19;;;;;;;1.75;0.80;;;24.60;83.20;;;;;;5015728;28;20022;-87
2022/08/09 09:59:49;;;;;;;4.03;1.05;;;24.60;82.50;;;;;;5032962;28;20029;-86
2022/08/09 10:02:17;;;;;;;1.67;0.63;;;24.70;82.70;;;;;;5033310;28;20437;-86
2022/08/09 10:04:44;;;;;;;3.63;1.30;;;24.70;82.50;;;;;;5016995;28;20017;-86
2022/08/09 10:07:24;;;;;;;3.00;1.05;;;24.80;82.30;;;;;;5034429;28;20072;-86
2022/08/09 10:09:56;;;;;;;2.10;1.00;;;24.90;82.40;;;;;;5033034;28;20009;-86
2022/08/09 10:12:24;;;;;;;3.28;0.77;;;24.90;82.10;;;;;;5033885;28;20018;-80
2022/08/09 10:14:50;;;;;;;3.30;0.90;;;25.00;81.90;;;;;;5028011;28;20060;-81
2022/08/09 10:17:20;;;;;;;0.68;0.68;;;25.10;82.20;;;;;;5049170;28;20057;-80
2022/08/09 10:19:46;;;;;;;4.82;0.80;;;25.10;80.80;;;;;;5031521;28;20018;-81
2022/08/09 10:22:12;;;;;;;1.85;0.70;;;25.20;80.70;;;;;;4989486;23;20526;-80
2022/08/09 10:24:39;;;;;;;2.22;0.70;;;25.20;80.60;;;;;;4990499;28;20022;-80
2022/08/09 10:27:06;;;;;;;1.55;0.63;;;25.30;80.40;;;;;;5006353;28;20023;-80
2022/08/09 10:29:33;;;;;;;0.70;0.50;;;25.40;80.30;;;;;;4973653;28;20361;-81
2022/08/09 10:31:59;;;;;;;1.48;0.70;;;25.40;80.00;;;;;;4992703;28;20101;-81
2022/08/09 10:34:25;;;;;;;1.70;0.63;;;25.50;79.50;;;;;;4976982;28;20121;-81
2022/08/09 10:36:55;;;;;;;1.52;0.68;;;25.60;78.90;;;;;;4993037;28;20034;-81
2022/08/09 10:39:23;;;;;;;2.30;0.70;;;25.60;78.50;;;;;;4977327;28;20022;-81
2022/08/09 10:41:49;;;;;;;2.33;0.75;;;25.60;78.50;;;;;;5008753;28;20526;-81
2022/08/09 10:44:21;;;;;;;3.45;1.10;;;25.70;78.60;;;;;;4989975;28;20029;-82
2022/08/09 10:47:12;;;;;;;3.47;1.13;;;25.80;77.00;;;;;;4992552;28;20442;-82
2022/08/09 10:49:55;;;;;;;1.92;0.80;;;25.80;76.40;;;;;;4987634;28;20054;-82
2022/08/09 10:52:42;;;;;;;2.50;0.70;;;25.80;76.00;;;;;;4991752;28;20357;-82
2022/08/09 10:55:25;;;;;;;3.78;1.15;;;25.90;76.10;;;;;;4995238;28;20027;-87
2022/08/09 10:57:52;;;;;;;1.15;0.73;;;26.00;75.90;;;;;;5008575;28;20389;-87
2022/08/09 11:00:36;;;;;;;1.70;0.73;;;26.00;74.80;;;;;;4984987;28;20007;-87
2022/08/09 11:03:17;;;;;;;1.70;0.60;;;26.00;74.50;;;;;;4991650;28;20038;-87
2022/08/09 11:06:14;;;;;;;0.75;0.40;;;26.10;74.40;;;;;;4994268;28;20033;-87
2022/08/09 11:08:42;;;;;;;0.75;0.57;;;26.10;73.70;;;;;;5003219;28;20457;-87
2022/08/09 11:11:08;;;;;;;1.25;0.75;;;26.20;73.40;;;;;;5009687;28;20010;-85
2022/08/09 11:13:33;;;;;;;3.40;0.90;;;26.20;72.60;;;;;;4993436;28;20044;-85
2022/08/09 11:16:30;;;;;;;1.23;0.70;;;26.30;72.60;;;;;;5008968;28;20383;-84
2022/08/09 11:18:56;;;;;;;2.10;0.65;;;26.30;72.60;;;;;;4992778;28;20113;-85
2022/08/09 11:21:51;;;;;;;1.73;0.70;;;26.30;71.20;;;;;;4973404;28;20563;-85
2022/08/09 11:24:18;;;;;;;1.42;0.70;;;26.40;70.70;;;;;;4994107;28;20084;-85
2022/08/09 11:26:47;;;;;;;3.45;0.63;;;26.50;70.40;;;;;;4991894;28;20031;-84
2022/08/09 11:29:51;;;;;;;2.78;1.00;;;26.50;70.50;;;;;;4992804;28;20026;-84
2022/08/09 11:32:38;;;;;;;5.20;1.17;;;26.60;70.50;;;;;;5009349;28;20022;-84
2022/08/09 11:35:16;;;;;;;2.67;0.80;;;26.70;69.80;;;;;;4989226;28;20046;-85
2022/08/09 11:37:42;;;;;;;2.03;0.82;;;26.70;69.50;;;;;;4994611;28;20023;-85
2022/08/09 11:40:28;;;;;;;1.67;0.85;;;26.80;69.30;;;;;;4995634;28;20121;-85
2022/08/09 11:42:55;;;;;;;1.02;0.70;;;26.80;68.40;;;;;;5000408;28;20035;-85
2022/08/09 11:45:22;;;;;;;1.25;0.75;;;26.90;67.40;;;;;;4972749;28;20066;-84
2022/08/09 11:47:53;;;;;;;1.63;0.60;;;26.90;67.40;;;;;;5009077;28;20018;-85
2022/08/09 11:50:20;;;;;;;1.63;0.70;;;27.00;67.00;;;;;;4989211;28;20109;-85
2022/08/09 11:52:58;;;;;;;1.85;0.88;;;27.10;66.80;;;;;;4992921;28;20041;-85
2022/08/09 11:55:33;;;;;;;2.90;0.77;;;27.10;66.00;;;;;;4996087;28;20038;-85
2022/08/09 11:58:23;;;;;;;1.15;0.57;;;27.20;65.20;;;;;;4996477;28;20022;-85
2022/08/09 12:00:52;;;;;;;;;;;27.20;65.10;;;;;;5013207;28;20061;-85
2022/08/09 12:03:21;;;;;;;2.05;0.75;;;27.30;66.00;;;;;;4996310;28;19972;-80
2022/08/09 12:05:48;;;;;;;1.38;0.77;;;27.30;65.20;;;;;;5013183;28;20482;-80
2022/08/09 12:08:15;;;;;;;2.65;1.08;;;27.40;65.80;;;;;;5012258;28;20030;-80
2022/08/09 12:10:44;;;;;;;1.13;0.70;;;27.40;65.70;;;;;;5012090;28;20112;-80
2022/08/09 12:13:10;;;;;;;1.13;0.70;;;27.50;65.20;;;;;;4982092;28;20019;-80
2022/08/09 12:15:35;;;;;;;1.85;0.60;;;27.50;64.70;;;;;;4990135;28;20577;-80
2022/08/09 12:18:01;;;;;;;1.83;0.82;;;27.60;64.50;;;;;;4962906;28;20035;-80
2022/08/09 12:20:29;;;;;;;0.98;0.50;;;27.60;64.30;;;;;;4995883;28;20357;-80
2022/08/09 12:23:00;;;;;;;7.63;1.17;;;27.70;64.20;;;;;;4997010;28;20522;-81
2022/08/09 12:25:28;;;;;;;7.13;1.45;;;27.80;64.30;;;;;;4996927;28;20122;-81
2022/08/09 12:28:15;;;;;;;1.52;0.63;;;27.90;63.80;;;;;;4996137;28;20041;-80
2022/08/09 12:30:42;;;;;;;1.65;0.77;;;27.90;62.90;;;;;;5007727;28;20031;-81
2022/08/09 12:33:09;;;;;;;1.88;0.82;;;28.00;61.80;;;;;;4988877;28;20058;-81
2022/08/09 12:35:36;;;;;;;2.45;0.95;;;28.10;61.40;;;;;;5002280;28;20113;-81
2022/08/09 12:38:28;;;;;;;2.38;0.77;;;28.10;60.90;;;;;;5009627;28;20048;-80
2022/08/09 12:40:54;;;;;;;2.97;0.95;;;28.20;61.50;;;;;;4995024;28;20017;-81
2022/08/09 12:43:23;;;;;;;2.45;0.90;;;28.20;61.10;;;;;;5011755;28;20015;-81
2022/08/09 12:45:50;;;;;;;0.70;0.70;;;28.30;60.10;;;;;;4979180;28;20361;-80
2022/08/09 12:48:16;;;;;;;1.30;0.70;;;28.30;59.80;;;;;;5011430;28;20068;-81
2022/08/09 12:50:43;;;;;;;2.30;0.73;;;28.40;60.00;;;;;;4989025;28;20121;-81
2022/08/09 12:53:27;;;;;;;1.08;0.60;;;28.40;60.20;;;;;;4996755;28;20098;-80
2022/08/09 12:56:16;;;;;;;0.80;0.60;;;28.50;59.50;;;;;;4992096;28;20027;-84
2022/08/09 12:59:02;;;;;;;2.22;0.82;;;28.50;59.20;;;;;;4993092;28;20022;-84